Pagrindinis puslapis
METAR-TAF:

METAR-TAF

Oro uostai :

Fort McMurray, Alberta, Kanada

platuma: 56-39N, ilguma: 111-13W, Aukštis: 369 m

Dabartinis oras

Ataskaita buvo paskelbta 54 minutes, ne 12:00 UTC
Vėjas 6 kt iš Rytų
Temperatūra -17°C
Drėgmė 71%
Slėgis 1022 hPa
Matomumas: 14.5 km
Išsisklaidę debesys ne aukštis 5500 ft

METAR: CYMM 191200Z AUTO 10006KT 9SM SCT055 M17/M21 A3017 RMK SLP255

Laikas: 05:54 (12:54 UTC)

Prognozė

Ataskaita buvo paskelbta 16 minutes, ne 12:38 UTC
Prognozė galioja nuo 19 metu 13 UTC su 20 metu 01 UTC
Vėjas 5 kt iš Rytų/Pietryčių
Matomumas: 10 km
Išsisklaidę debesys ne aukštis 6000 ft
Laikinai
nuo 19 metu 13 UTC su 19 metu 16 UTC
Su prošvaistėmis ne aukštis 6000 ft
Nuo 19 metu 1700 UTC
Vėjas 8 kt iš Vakarų/Pietvakarių
Matomumas: 10 km
Mažai debesys ne aukštis 24000 ft

TAF: CYMM 191238Z 1913/2001 12005KT P6SM SCT060 TEMPO 1913/1916 BKN060 FM191700 24008KT P6SM FEW240 RMK FCST BASED ON AUTO OBS. NXT FCST BY 191900Z

Orai ataskaitas ir orų prognozės (METAR, TAF).

turimą stotys yra geltonos ir raudonos taškus žemėlapyje.

Perkelti pele per norėdami pamatyti stoties vardą.

Tada spustelėkite, norėdami matyti oro stebėjimo ir prognozės.

Norėdami pakeisti žemėlapį: spustelėkite ant žalios mygtukų su juodo kryžiaus žemyn,; žalią mygtuką su brūkšneliu, jei norite nutolinti; arba žalių rodyklių gretimoms žemėlapius.


METAR-TAF: